sensor_id;sensor_type;location;lat;lon;timestamp;P1;durP1;ratioP1;P2;durP2;ratioP2
79533;SDS011;68982;52.160;6.736;2023-04-06T00:00:02;12.87;;;8.13;;
79533;SDS011;68982;52.160;6.736;2023-04-06T00:04:55;13.13;;;7.40;;
79533;SDS011;68982;52.160;6.736;2023-04-06T00:07:20;12.13;;;7.25;;
79533;SDS011;68982;52.160;6.736;2023-04-06T00:09:46;11.43;;;7.37;;
79533;SDS011;68982;52.160;6.736;2023-04-06T00:12:11;11.98;;;7.53;;
79533;SDS011;68982;52.160;6.736;2023-04-06T00:14:36;13.95;;;9.15;;
79533;SDS011;68982;52.160;6.736;2023-04-06T00:17:02;11.27;;;7.70;;
79533;SDS011;68982;52.160;6.736;2023-04-06T00:19:27;11.00;;;7.95;;
79533;SDS011;68982;52.160;6.736;2023-04-06T00:21:52;15.98;;;8.32;;
79533;SDS011;68982;52.160;6.736;2023-04-06T00:24:18;12.57;;;7.63;;
79533;SDS011;68982;52.160;6.736;2023-04-06T00:26:43;13.13;;;8.02;;
79533;SDS011;68982;52.160;6.736;2023-04-06T00:29:08;13.37;;;7.63;;
79533;SDS011;68982;52.160;6.736;2023-04-06T00:31:34;12.80;;;8.20;;
79533;SDS011;68982;52.160;6.736;2023-04-06T00:33:59;13.77;;;8.43;;
79533;SDS011;68982;52.160;6.736;2023-04-06T00:36:25;12.47;;;8.17;;
79533;SDS011;68982;52.160;6.736;2023-04-06T00:38:50;14.00;;;9.20;;
79533;SDS011;68982;52.160;6.736;2023-04-06T00:41:17;13.32;;;7.72;;
79533;SDS011;68982;52.160;6.736;2023-04-06T00:43:42;13.70;;;8.20;;
79533;SDS011;68982;52.160;6.736;2023-04-06T00:46:08;12.05;;;8.15;;
79533;SDS011;68982;52.160;6.736;2023-04-06T00:48:33;12.50;;;7.63;;
79533;SDS011;68982;52.160;6.736;2023-04-06T00:51:00;13.13;;;8.30;;
79533;SDS011;68982;52.160;6.736;2023-04-06T00:53:26;13.70;;;7.68;;
79533;SDS011;68982;52.160;6.736;2023-04-06T00:55:51;12.43;;;8.27;;
79533;SDS011;68982;52.160;6.736;2023-04-06T00:58:17;15.77;;;8.57;;
79533;SDS011;68982;52.160;6.736;2023-04-06T01:00:42;14.45;;;8.88;;
79533;SDS011;68982;52.160;6.736;2023-04-06T01:03:07;13.02;;;8.88;;
79533;SDS011;68982;52.160;6.736;2023-04-06T01:05:34;13.68;;;9.60;;
79533;SDS011;68982;52.160;6.736;2023-04-06T01:08:04;14.07;;;8.77;;
79533;SDS011;68982;52.160;6.736;2023-04-06T01:10:30;13.15;;;8.48;;
79533;SDS011;68982;52.160;6.736;2023-04-06T01:12:56;15.55;;;8.63;;
79533;SDS011;68982;52.160;6.736;2023-04-06T01:15:21;13.52;;;8.60;;
79533;SDS011;68982;52.160;6.736;2023-04-06T01:17:47;14.23;;;8.70;;
79533;SDS011;68982;52.160;6.736;2023-04-06T01:20:12;13.07;;;8.07;;
79533;SDS011;68982;52.160;6.736;2023-04-06T01:22:38;14.18;;;8.38;;
79533;SDS011;68982;52.160;6.736;2023-04-06T01:25:04;14.85;;;8.65;;
79533;SDS011;68982;52.160;6.736;2023-04-06T01:27:29;15.13;;;7.82;;
79533;SDS011;68982;52.160;6.736;2023-04-06T01:29:55;15.03;;;8.60;;
79533;SDS011;68982;52.160;6.736;2023-04-06T01:32:24;13.73;;;8.07;;
79533;SDS011;68982;52.160;6.736;2023-04-06T01:34:49;15.40;;;8.43;;
79533;SDS011;68982;52.160;6.736;2023-04-06T01:37:15;13.40;;;8.82;;
79533;SDS011;68982;52.160;6.736;2023-04-06T01:39:42;14.63;;;9.10;;
79533;SDS011;68982;52.160;6.736;2023-04-06T01:42:08;12.65;;;8.00;;
79533;SDS011;68982;52.160;6.736;2023-04-06T01:44:33;12.32;;;7.38;;
79533;SDS011;68982;52.160;6.736;2023-04-06T01:46:59;12.63;;;7.63;;
79533;SDS011;68982;52.160;6.736;2023-04-06T01:49:24;11.48;;;7.57;;
79533;SDS011;68982;52.160;6.736;2023-04-06T01:51:50;15.70;;;9.13;;
79533;SDS011;68982;52.160;6.736;2023-04-06T01:54:16;13.55;;;9.75;;
79533;SDS011;68982;52.160;6.736;2023-04-06T01:56:42;13.82;;;8.98;;
79533;SDS011;68982;52.160;6.736;2023-04-06T01:59:07;15.40;;;10.25;;
79533;SDS011;68982;52.160;6.736;2023-04-06T02:01:32;13.23;;;8.50;;
79533;SDS011;68982;52.160;6.736;2023-04-06T02:03:58;14.73;;;9.30;;
79533;SDS011;68982;52.160;6.736;2023-04-06T02:06:23;13.82;;;8.57;;
79533;SDS011;68982;52.160;6.736;2023-04-06T02:08:48;13.23;;;8.47;;
79533;SDS011;68982;52.160;6.736;2023-04-06T02:11:14;12.15;;;8.38;;
79533;SDS011;68982;52.160;6.736;2023-04-06T02:13:39;12.55;;;8.40;;
79533;SDS011;68982;52.160;6.736;2023-04-06T02:16:04;14.73;;;8.37;;
79533;SDS011;68982;52.160;6.736;2023-04-06T02:18:30;12.73;;;8.57;;
79533;SDS011;68982;52.160;6.736;2023-04-06T02:20:56;16.88;;;9.05;;
79533;SDS011;68982;52.160;6.736;2023-04-06T02:23:21;13.82;;;10.40;;
79533;SDS011;68982;52.160;6.736;2023-04-06T02:25:47;13.65;;;8.77;;
79533;SDS011;68982;52.160;6.736;2023-04-06T02:28:12;15.03;;;9.37;;
79533;SDS011;68982;52.160;6.736;2023-04-06T02:30:38;17.20;;;8.97;;
79533;SDS011;68982;52.160;6.736;2023-04-06T02:33:03;14.50;;;8.80;;
79533;SDS011;68982;52.160;6.736;2023-04-06T02:35:29;13.70;;;9.10;;
79533;SDS011;68982;52.160;6.736;2023-04-06T02:37:55;12.48;;;8.52;;
79533;SDS011;68982;52.160;6.736;2023-04-06T02:40:20;13.77;;;8.52;;
79533;SDS011;68982;52.160;6.736;2023-04-06T02:42:46;11.35;;;7.88;;
79533;SDS011;68982;52.160;6.736;2023-04-06T02:45:11;16.83;;;9.05;;
79533;SDS011;68982;52.160;6.736;2023-04-06T02:47:36;15.20;;;10.40;;
79533;SDS011;68982;52.160;6.736;2023-04-06T02:50:02;11.75;;;7.60;;
79533;SDS011;68982;52.160;6.736;2023-04-06T02:52:27;14.05;;;8.45;;
79533;SDS011;68982;52.160;6.736;2023-04-06T02:54:53;16.17;;;9.07;;
79533;SDS011;68982;52.160;6.736;2023-04-06T02:57:18;13.60;;;8.67;;
79533;SDS011;68982;52.160;6.736;2023-04-06T02:59:44;13.05;;;8.30;;
79533;SDS011;68982;52.160;6.736;2023-04-06T03:02:09;13.95;;;8.55;;
79533;SDS011;68982;52.160;6.736;2023-04-06T03:04:35;12.82;;;8.30;;
79533;SDS011;68982;52.160;6.736;2023-04-06T03:07:00;16.90;;;10.30;;
79533;SDS011;68982;52.160;6.736;2023-04-06T03:09:25;15.20;;;8.88;;
79533;SDS011;68982;52.160;6.736;2023-04-06T03:11:51;14.60;;;8.07;;
79533;SDS011;68982;52.160;6.736;2023-04-06T03:14:16;13.73;;;8.47;;
79533;SDS011;68982;52.160;6.736;2023-04-06T03:16:46;12.68;;;7.85;;
79533;SDS011;68982;52.160;6.736;2023-04-06T03:19:11;13.90;;;8.30;;
79533;SDS011;68982;52.160;6.736;2023-04-06T03:21:37;14.43;;;8.85;;
79533;SDS011;68982;52.160;6.736;2023-04-06T03:24:02;15.43;;;8.73;;
79533;SDS011;68982;52.160;6.736;2023-04-06T03:26:28;11.32;;;7.97;;
79533;SDS011;68982;52.160;6.736;2023-04-06T03:28:53;12.33;;;8.07;;
79533;SDS011;68982;52.160;6.736;2023-04-06T03:31:18;13.18;;;8.30;;
79533;SDS011;68982;52.160;6.736;2023-04-06T03:33:44;14.63;;;7.90;;
79533;SDS011;68982;52.160;6.736;2023-04-06T03:36:09;13.60;;;8.80;;
79533;SDS011;68982;52.160;6.736;2023-04-06T03:38:35;13.57;;;8.13;;
79533;SDS011;68982;52.160;6.736;2023-04-06T03:41:00;13.63;;;8.57;;
79533;SDS011;68982;52.160;6.736;2023-04-06T03:43:25;13.93;;;8.85;;
79533;SDS011;68982;52.160;6.736;2023-04-06T03:45:51;20.27;;;9.20;;
79533;SDS011;68982;52.160;6.736;2023-04-06T03:48:16;15.80;;;8.30;;
79533;SDS011;68982;52.160;6.736;2023-04-06T03:50:41;16.02;;;10.15;;
79533;SDS011;68982;52.160;6.736;2023-04-06T03:53:07;12.87;;;8.43;;
79533;SDS011;68982;52.160;6.736;2023-04-06T03:55:33;15.38;;;8.52;;
79533;SDS011;68982;52.160;6.736;2023-04-06T03:57:59;12.77;;;8.00;;
79533;SDS011;68982;52.160;6.736;2023-04-06T04:00:24;13.25;;;8.57;;
79533;SDS011;68982;52.160;6.736;2023-04-06T04:02:50;13.95;;;9.05;;
79533;SDS011;68982;52.160;6.736;2023-04-06T04:05:15;14.57;;;8.73;;
79533;SDS011;68982;52.160;6.736;2023-04-06T04:07:41;13.70;;;8.93;;
79533;SDS011;68982;52.160;6.736;2023-04-06T04:10:06;18.02;;;8.93;;
79533;SDS011;68982;52.160;6.736;2023-04-06T04:12:32;15.40;;;9.20;;
79533;SDS011;68982;52.160;6.736;2023-04-06T04:14:57;15.03;;;9.47;;
79533;SDS011;68982;52.160;6.736;2023-04-06T04:17:24;14.53;;;9.10;;
79533;SDS011;68982;52.160;6.736;2023-04-06T04:19:50;15.13;;;8.32;;
79533;SDS011;68982;52.160;6.736;2023-04-06T04:22:15;13.82;;;9.30;;
79533;SDS011;68982;52.160;6.736;2023-04-06T04:24:40;17.38;;;8.88;;
79533;SDS011;68982;52.160;6.736;2023-04-06T04:27:06;16.80;;;9.53;;
79533;SDS011;68982;52.160;6.736;2023-04-06T04:29:31;14.27;;;9.00;;
79533;SDS011;68982;52.160;6.736;2023-04-06T04:31:56;16.55;;;10.63;;
79533;SDS011;68982;52.160;6.736;2023-04-06T04:34:22;16.45;;;9.48;;
79533;SDS011;68982;52.160;6.736;2023-04-06T04:36:51;15.82;;;9.25;;
79533;SDS011;68982;52.160;6.736;2023-04-06T04:39:16;17.02;;;9.40;;
79533;SDS011;68982;52.160;6.736;2023-04-06T04:41:42;14.73;;;8.73;;
79533;SDS011;68982;52.160;6.736;2023-04-06T04:44:07;14.20;;;9.07;;
79533;SDS011;68982;52.160;6.736;2023-04-06T04:46:32;13.97;;;8.57;;
79533;SDS011;68982;52.160;6.736;2023-04-06T04:48:58;15.03;;;8.97;;
79533;SDS011;68982;52.160;6.736;2023-04-06T04:51:23;16.97;;;11.30;;
79533;SDS011;68982;52.160;6.736;2023-04-06T04:53:49;14.57;;;9.70;;
79533;SDS011;68982;52.160;6.736;2023-04-06T04:56:15;16.98;;;9.07;;
79533;SDS011;68982;52.160;6.736;2023-04-06T04:58:40;15.13;;;9.55;;
79533;SDS011;68982;52.160;6.736;2023-04-06T05:01:05;16.00;;;9.70;;
79533;SDS011;68982;52.160;6.736;2023-04-06T05:03:32;13.82;;;9.43;;
79533;SDS011;68982;52.160;6.736;2023-04-06T05:05:57;14.57;;;8.98;;
79533;SDS011;68982;52.160;6.736;2023-04-06T05:08:23;15.55;;;10.88;;
79533;SDS011;68982;52.160;6.736;2023-04-06T05:10:48;14.88;;;8.95;;
79533;SDS011;68982;52.160;6.736;2023-04-06T05:13:14;15.98;;;8.85;;
79533;SDS011;68982;52.160;6.736;2023-04-06T05:15:39;16.92;;;11.07;;
79533;SDS011;68982;52.160;6.736;2023-04-06T05:18:05;17.42;;;9.52;;
79533;SDS011;68982;52.160;6.736;2023-04-06T05:20:32;17.95;;;9.57;;
79533;SDS011;68982;52.160;6.736;2023-04-06T05:22:57;15.68;;;10.07;;
79533;SDS011;68982;52.160;6.736;2023-04-06T05:25:23;18.45;;;9.90;;
79533;SDS011;68982;52.160;6.736;2023-04-06T05:27:49;15.60;;;9.75;;
79533;SDS011;68982;52.160;6.736;2023-04-06T05:30:15;18.42;;;10.05;;
79533;SDS011;68982;52.160;6.736;2023-04-06T05:32:40;16.52;;;9.90;;
79533;SDS011;68982;52.160;6.736;2023-04-06T05:35:07;18.67;;;10.70;;
79533;SDS011;68982;52.160;6.736;2023-04-06T05:37:33;15.95;;;9.90;;
79533;SDS011;68982;52.160;6.736;2023-04-06T05:39:58;18.52;;;9.27;;
79533;SDS011;68982;52.160;6.736;2023-04-06T05:42:23;16.43;;;9.77;;
79533;SDS011;68982;52.160;6.736;2023-04-06T05:44:49;19.63;;;10.50;;
79533;SDS011;68982;52.160;6.736;2023-04-06T05:47:14;17.60;;;11.98;;
79533;SDS011;68982;52.160;6.736;2023-04-06T05:49:41;18.48;;;10.48;;
79533;SDS011;68982;52.160;6.736;2023-04-06T05:52:07;18.40;;;10.45;;
79533;SDS011;68982;52.160;6.736;2023-04-06T05:54:33;16.83;;;10.23;;
79533;SDS011;68982;52.160;6.736;2023-04-06T05:56:59;17.00;;;11.80;;
79533;SDS011;68982;52.160;6.736;2023-04-06T05:59:24;18.63;;;11.02;;
79533;SDS011;68982;52.160;6.736;2023-04-06T06:01:49;16.70;;;10.18;;
79533;SDS011;68982;52.160;6.736;2023-04-06T06:04:15;17.57;;;10.83;;
79533;SDS011;68982;52.160;6.736;2023-04-06T06:06:40;19.20;;;11.97;;
79533;SDS011;68982;52.160;6.736;2023-04-06T06:09:05;18.73;;;10.57;;
79533;SDS011;68982;52.160;6.736;2023-04-06T06:11:31;17.67;;;10.87;;
79533;SDS011;68982;52.160;6.736;2023-04-06T06:13:58;20.00;;;12.57;;
79533;SDS011;68982;52.160;6.736;2023-04-06T06:16:23;20.00;;;12.40;;
79533;SDS011;68982;52.160;6.736;2023-04-06T06:18:48;18.85;;;11.15;;
79533;SDS011;68982;52.160;6.736;2023-04-06T06:21:14;16.38;;;10.23;;
79533;SDS011;68982;52.160;6.736;2023-04-06T06:23:41;18.13;;;10.88;;
79533;SDS011;68982;52.160;6.736;2023-04-06T06:26:07;18.98;;;12.13;;
79533;SDS011;68982;52.160;6.736;2023-04-06T06:28:32;18.52;;;13.02;;
79533;SDS011;68982;52.160;6.736;2023-04-06T06:30:58;16.10;;;10.33;;
79533;SDS011;68982;52.160;6.736;2023-04-06T06:33:23;20.63;;;11.18;;
79533;SDS011;68982;52.160;6.736;2023-04-06T06:35:49;17.73;;;12.60;;
79533;SDS011;68982;52.160;6.736;2023-04-06T06:38:15;22.67;;;11.52;;
79533;SDS011;68982;52.160;6.736;2023-04-06T06:40:40;16.90;;;10.43;;
79533;SDS011;68982;52.160;6.736;2023-04-06T06:43:06;21.13;;;11.82;;
79533;SDS011;68982;52.160;6.736;2023-04-06T06:45:31;19.08;;;10.88;;
79533;SDS011;68982;52.160;6.736;2023-04-06T06:47:57;19.35;;;11.15;;
79533;SDS011;68982;52.160;6.736;2023-04-06T06:50:23;16.08;;;10.63;;
79533;SDS011;68982;52.160;6.736;2023-04-06T06:52:48;19.00;;;11.50;;
79533;SDS011;68982;52.160;6.736;2023-04-06T06:55:14;20.65;;;10.82;;
79533;SDS011;68982;52.160;6.736;2023-04-06T06:57:40;16.45;;;10.57;;
79533;SDS011;68982;52.160;6.736;2023-04-06T07:00:07;19.45;;;11.07;;
79533;SDS011;68982;52.160;6.736;2023-04-06T07:02:36;21.83;;;12.25;;
79533;SDS011;68982;52.160;6.736;2023-04-06T07:05:02;22.20;;;14.02;;
79533;SDS011;68982;52.160;6.736;2023-04-06T07:07:28;21.65;;;12.30;;
79533;SDS011;68982;52.160;6.736;2023-04-06T07:09:53;19.52;;;12.20;;
79533;SDS011;68982;52.160;6.736;2023-04-06T07:12:25;18.90;;;11.75;;
79533;SDS011;68982;52.160;6.736;2023-04-06T07:14:51;18.20;;;11.27;;
79533;SDS011;68982;52.160;6.736;2023-04-06T07:17:16;17.92;;;11.10;;
79533;SDS011;68982;52.160;6.736;2023-04-06T07:19:42;23.20;;;10.90;;
79533;SDS011;68982;52.160;6.736;2023-04-06T07:22:07;21.75;;;13.30;;
79533;SDS011;68982;52.160;6.736;2023-04-06T07:24:32;18.13;;;11.18;;
79533;SDS011;68982;52.160;6.736;2023-04-06T07:26:58;23.97;;;13.63;;
79533;SDS011;68982;52.160;6.736;2023-04-06T07:29:25;21.40;;;11.77;;
79533;SDS011;68982;52.160;6.736;2023-04-06T07:31:51;21.52;;;12.35;;
79533;SDS011;68982;52.160;6.736;2023-04-06T07:34:17;21.05;;;14.10;;
79533;SDS011;68982;52.160;6.736;2023-04-06T07:36:42;20.73;;;12.73;;
79533;SDS011;68982;52.160;6.736;2023-04-06T07:39:07;19.58;;;11.85;;
79533;SDS011;68982;52.160;6.736;2023-04-06T07:41:33;21.40;;;13.30;;
79533;SDS011;68982;52.160;6.736;2023-04-06T07:43:58;20.08;;;12.07;;
79533;SDS011;68982;52.160;6.736;2023-04-06T07:46:24;21.93;;;11.43;;
79533;SDS011;68982;52.160;6.736;2023-04-06T07:48:49;26.20;;;14.65;;
79533;SDS011;68982;52.160;6.736;2023-04-06T07:51:15;21.58;;;11.25;;
79533;SDS011;68982;52.160;6.736;2023-04-06T07:53:43;19.63;;;12.07;;
79533;SDS011;68982;52.160;6.736;2023-04-06T07:56:09;19.52;;;12.27;;
79533;SDS011;68982;52.160;6.736;2023-04-06T07:58:35;22.25;;;11.35;;
79533;SDS011;68982;52.160;6.736;2023-04-06T08:01:00;20.80;;;11.20;;
79533;SDS011;68982;52.160;6.736;2023-04-06T08:03:26;19.13;;;13.32;;
79533;SDS011;68982;52.160;6.736;2023-04-06T08:05:52;23.92;;;12.07;;
79533;SDS011;68982;52.160;6.736;2023-04-06T08:08:18;18.33;;;11.98;;
79533;SDS011;68982;52.160;6.736;2023-04-06T08:10:44;27.25;;;13.52;;
79533;SDS011;68982;52.160;6.736;2023-04-06T08:13:09;20.60;;;11.13;;
79533;SDS011;68982;52.160;6.736;2023-04-06T08:15:35;17.92;;;11.23;;
79533;SDS011;68982;52.160;6.736;2023-04-06T08:18:00;20.02;;;11.95;;
79533;SDS011;68982;52.160;6.736;2023-04-06T08:20:26;21.17;;;12.60;;
79533;SDS011;68982;52.160;6.736;2023-04-06T08:22:51;18.80;;;11.55;;
79533;SDS011;68982;52.160;6.736;2023-04-06T08:25:16;20.38;;;12.00;;
79533;SDS011;68982;52.160;6.736;2023-04-06T08:27:42;20.85;;;12.93;;
79533;SDS011;68982;52.160;6.736;2023-04-06T08:30:07;20.40;;;14.02;;
79533;SDS011;68982;52.160;6.736;2023-04-06T08:32:33;21.73;;;11.50;;
79533;SDS011;68982;52.160;6.736;2023-04-06T08:34:59;20.13;;;11.55;;
79533;SDS011;68982;52.160;6.736;2023-04-06T08:37:24;22.58;;;12.23;;
79533;SDS011;68982;52.160;6.736;2023-04-06T08:39:50;22.17;;;12.20;;
79533;SDS011;68982;52.160;6.736;2023-04-06T08:42:21;17.58;;;10.60;;
79533;SDS011;68982;52.160;6.736;2023-04-06T08:44:51;20.15;;;13.30;;
79533;SDS011;68982;52.160;6.736;2023-04-06T08:47:17;21.45;;;12.02;;
79533;SDS011;68982;52.160;6.736;2023-04-06T08:49:43;22.00;;;13.80;;
79533;SDS011;68982;52.160;6.736;2023-04-06T08:52:10;19.38;;;12.45;;
79533;SDS011;68982;52.160;6.736;2023-04-06T08:54:36;21.73;;;11.90;;
79533;SDS011;68982;52.160;6.736;2023-04-06T08:57:03;23.63;;;12.60;;
79533;SDS011;68982;52.160;6.736;2023-04-06T08:59:30;23.02;;;12.30;;
79533;SDS011;68982;52.160;6.736;2023-04-06T09:01:56;21.25;;;11.77;;
79533;SDS011;68982;52.160;6.736;2023-04-06T09:04:22;17.90;;;11.13;;
79533;SDS011;68982;52.160;6.736;2023-04-06T09:06:48;19.95;;;11.90;;
79533;SDS011;68982;52.160;6.736;2023-04-06T09:09:14;20.23;;;12.35;;
79533;SDS011;68982;52.160;6.736;2023-04-06T09:11:50;20.52;;;11.82;;
79533;SDS011;68982;52.160;6.736;2023-04-06T09:14:17;20.98;;;11.85;;
79533;SDS011;68982;52.160;6.736;2023-04-06T09:16:57;22.02;;;11.88;;
79533;SDS011;68982;52.160;6.736;2023-04-06T09:19:23;18.27;;;12.53;;
79533;SDS011;68982;52.160;6.736;2023-04-06T09:21:48;23.75;;;14.57;;
79533;SDS011;68982;52.160;6.736;2023-04-06T09:24:13;20.60;;;11.75;;
79533;SDS011;68982;52.160;6.736;2023-04-06T09:26:45;26.58;;;13.02;;
79533;SDS011;68982;52.160;6.736;2023-04-06T09:29:21;24.13;;;14.57;;
79533;SDS011;68982;52.160;6.736;2023-04-06T09:31:48;19.50;;;12.30;;
79533;SDS011;68982;52.160;6.736;2023-04-06T09:34:21;19.23;;;12.60;;
79533;SDS011;68982;52.160;6.736;2023-04-06T09:36:48;22.38;;;13.82;;
79533;SDS011;68982;52.160;6.736;2023-04-06T09:39:13;24.77;;;12.90;;
79533;SDS011;68982;52.160;6.736;2023-04-06T09:41:39;20.17;;;12.93;;
79533;SDS011;68982;52.160;6.736;2023-04-06T09:44:06;23.38;;;14.05;;
79533;SDS011;68982;52.160;6.736;2023-04-06T09:46:33;21.08;;;14.10;;
79533;SDS011;68982;52.160;6.736;2023-04-06T09:49:04;22.60;;;13.70;;
79533;SDS011;68982;52.160;6.736;2023-04-06T09:51:31;23.17;;;13.27;;
79533;SDS011;68982;52.160;6.736;2023-04-06T09:54:04;18.92;;;12.20;;
79533;SDS011;68982;52.160;6.736;2023-04-06T09:56:33;21.23;;;12.80;;
79533;SDS011;68982;52.160;6.736;2023-04-06T09:59:06;21.52;;;12.50;;
79533;SDS011;68982;52.160;6.736;2023-04-06T10:01:36;20.67;;;12.90;;
79533;SDS011;68982;52.160;6.736;2023-04-06T10:04:07;20.88;;;12.50;;
79533;SDS011;68982;52.160;6.736;2023-04-06T10:06:43;22.80;;;13.20;;
79533;SDS011;68982;52.160;6.736;2023-04-06T10:09:13;21.88;;;14.80;;
79533;SDS011;68982;52.160;6.736;2023-04-06T10:11:39;25.73;;;15.07;;
79533;SDS011;68982;52.160;6.736;2023-04-06T10:14:06;19.92;;;12.95;;
79533;SDS011;68982;52.160;6.736;2023-04-06T10:16:32;18.55;;;12.52;;
79533;SDS011;68982;52.160;6.736;2023-04-06T10:19:13;21.88;;;14.68;;
79533;SDS011;68982;52.160;6.736;2023-04-06T10:21:41;19.40;;;12.60;;
79533;SDS011;68982;52.160;6.736;2023-04-06T10:24:10;21.17;;;12.75;;
79533;SDS011;68982;52.160;6.736;2023-04-06T10:26:37;21.27;;;13.27;;
79533;SDS011;68982;52.160;6.736;2023-04-06T10:29:03;24.10;;;15.18;;
79533;SDS011;68982;52.160;6.736;2023-04-06T10:31:28;25.00;;;14.35;;
79533;SDS011;68982;52.160;6.736;2023-04-06T10:33:55;25.00;;;14.68;;
79533;SDS011;68982;52.160;6.736;2023-04-06T10:36:26;21.77;;;14.50;;
79533;SDS011;68982;52.160;6.736;2023-04-06T10:38:57;20.15;;;13.23;;
79533;SDS011;68982;52.160;6.736;2023-04-06T10:41:35;23.27;;;14.43;;
79533;SDS011;68982;52.160;6.736;2023-04-06T10:44:05;21.55;;;13.45;;
79533;SDS011;68982;52.160;6.736;2023-04-06T10:46:32;21.75;;;13.73;;
79533;SDS011;68982;52.160;6.736;2023-04-06T10:49:09;20.85;;;13.27;;
79533;SDS011;68982;52.160;6.736;2023-04-06T10:51:38;21.13;;;13.60;;
79533;SDS011;68982;52.160;6.736;2023-04-06T10:54:07;29.60;;;16.63;;
79533;SDS011;68982;52.160;6.736;2023-04-06T10:56:36;23.02;;;14.52;;
79533;SDS011;68982;52.160;6.736;2023-04-06T10:59:03;22.33;;;13.93;;
79533;SDS011;68982;52.160;6.736;2023-04-06T11:01:30;20.75;;;13.40;;
79533;SDS011;68982;52.160;6.736;2023-04-06T11:03:56;21.70;;;12.68;;
79533;SDS011;68982;52.160;6.736;2023-04-06T11:06:24;22.67;;;13.23;;
79533;SDS011;68982;52.160;6.736;2023-04-06T11:08:51;20.75;;;13.07;;
79533;SDS011;68982;52.160;6.736;2023-04-06T11:11:19;24.85;;;13.98;;
79533;SDS011;68982;52.160;6.736;2023-04-06T11:16:17;27.33;;;13.63;;
79533;SDS011;68982;52.160;6.736;2023-04-06T11:19:02;23.15;;;13.23;;
79533;SDS011;68982;52.160;6.736;2023-04-06T11:24:10;23.42;;;13.93;;
79533;SDS011;68982;52.160;6.736;2023-04-06T11:26:41;22.35;;;13.40;;
79533;SDS011;68982;52.160;6.736;2023-04-06T11:29:07;23.30;;;14.02;;
79533;SDS011;68982;52.160;6.736;2023-04-06T11:31:39;21.40;;;13.25;;
79533;SDS011;68982;52.160;6.736;2023-04-06T11:34:09;23.42;;;12.77;;
79533;SDS011;68982;52.160;6.736;2023-04-06T11:36:35;22.38;;;13.05;;
79533;SDS011;68982;52.160;6.736;2023-04-06T11:39:02;25.75;;;13.25;;
79533;SDS011;68982;52.160;6.736;2023-04-06T11:41:28;20.30;;;12.88;;
79533;SDS011;68982;52.160;6.736;2023-04-06T11:43:55;21.10;;;13.05;;
79533;SDS011;68982;52.160;6.736;2023-04-06T11:46:20;23.63;;;13.45;;
79533;SDS011;68982;52.160;6.736;2023-04-06T11:48:46;22.90;;;13.25;;
79533;SDS011;68982;52.160;6.736;2023-04-06T11:51:11;22.25;;;12.85;;
79533;SDS011;68982;52.160;6.736;2023-04-06T11:53:47;27.15;;;14.52;;
79533;SDS011;68982;52.160;6.736;2023-04-06T11:56:22;23.63;;;13.30;;
79533;SDS011;68982;52.160;6.736;2023-04-06T11:58:52;24.52;;;13.45;;
79533;SDS011;68982;52.160;6.736;2023-04-06T12:01:21;21.55;;;11.70;;
79533;SDS011;68982;52.160;6.736;2023-04-06T12:03:48;22.83;;;12.75;;
79533;SDS011;68982;52.160;6.736;2023-04-06T12:06:14;22.73;;;12.88;;
79533;SDS011;68982;52.160;6.736;2023-04-06T12:08:40;22.88;;;13.23;;
79533;SDS011;68982;52.160;6.736;2023-04-06T12:11:05;22.45;;;12.88;;
79533;SDS011;68982;52.160;6.736;2023-04-06T12:13:31;22.80;;;13.43;;
79533;SDS011;68982;52.160;6.736;2023-04-06T12:15:56;22.88;;;13.70;;
79533;SDS011;68982;52.160;6.736;2023-04-06T12:18:21;23.02;;;13.70;;
79533;SDS011;68982;52.160;6.736;2023-04-06T12:20:47;22.20;;;12.73;;
79533;SDS011;68982;52.160;6.736;2023-04-06T12:23:12;22.63;;;13.48;;
79533;SDS011;68982;52.160;6.736;2023-04-06T12:25:41;23.10;;;12.93;;
79533;SDS011;68982;52.160;6.736;2023-04-06T12:28:07;23.60;;;13.23;;
79533;SDS011;68982;52.160;6.736;2023-04-06T12:30:34;20.60;;;12.93;;
79533;SDS011;68982;52.160;6.736;2023-04-06T12:33:00;20.45;;;12.90;;
79533;SDS011;68982;52.160;6.736;2023-04-06T12:35:26;23.73;;;13.18;;
79533;SDS011;68982;52.160;6.736;2023-04-06T12:37:52;25.63;;;13.50;;
79533;SDS011;68982;52.160;6.736;2023-04-06T12:40:17;21.30;;;14.07;;
79533;SDS011;68982;52.160;6.736;2023-04-06T12:42:42;23.83;;;12.90;;
79533;SDS011;68982;52.160;6.736;2023-04-06T12:45:08;22.27;;;12.63;;
79533;SDS011;68982;52.160;6.736;2023-04-06T12:47:34;20.73;;;12.75;;
79533;SDS011;68982;52.160;6.736;2023-04-06T12:50:01;20.67;;;12.50;;
79533;SDS011;68982;52.160;6.736;2023-04-06T12:52:27;20.98;;;11.68;;
79533;SDS011;68982;52.160;6.736;2023-04-06T12:54:55;19.73;;;12.23;;
79533;SDS011;68982;52.160;6.736;2023-04-06T12:57:20;19.35;;;11.23;;
79533;SDS011;68982;52.160;6.736;2023-04-06T12:59:46;16.98;;;9.68;;
79533;SDS011;68982;52.160;6.736;2023-04-06T13:02:12;15.68;;;11.10;;
79533;SDS011;68982;52.160;6.736;2023-04-06T13:04:37;13.15;;;8.43;;
79533;SDS011;68982;52.160;6.736;2023-04-06T13:07:03;13.65;;;7.60;;
79533;SDS011;68982;52.160;6.736;2023-04-06T13:09:29;12.52;;;7.18;;
79533;SDS011;68982;52.160;6.736;2023-04-06T13:11:54;12.15;;;7.72;;
79533;SDS011;68982;52.160;6.736;2023-04-06T13:14:20;15.57;;;7.90;;
79533;SDS011;68982;52.160;6.736;2023-04-06T13:16:46;12.93;;;8.27;;
79533;SDS011;68982;52.160;6.736;2023-04-06T13:19:11;16.48;;;9.63;;
79533;SDS011;68982;52.160;6.736;2023-04-06T13:21:36;13.55;;;8.55;;
79533;SDS011;68982;52.160;6.736;2023-04-06T13:24:02;13.18;;;8.30;;
79533;SDS011;68982;52.160;6.736;2023-04-06T13:26:28;14.63;;;9.50;;
79533;SDS011;68982;52.160;6.736;2023-04-06T13:28:53;14.13;;;8.95;;
79533;SDS011;68982;52.160;6.736;2023-04-06T13:31:21;24.73;;;9.05;;
79533;SDS011;68982;52.160;6.736;2023-04-06T13:33:46;16.00;;;9.27;;
79533;SDS011;68982;52.160;6.736;2023-04-06T13:36:12;16.67;;;10.07;;
79533;SDS011;68982;52.160;6.736;2023-04-06T13:38:37;17.60;;;10.45;;
79533;SDS011;68982;52.160;6.736;2023-04-06T13:41:03;17.38;;;10.98;;
79533;SDS011;68982;52.160;6.736;2023-04-06T13:43:29;21.10;;;10.23;;
79533;SDS011;68982;52.160;6.736;2023-04-06T13:45:57;16.70;;;9.50;;
79533;SDS011;68982;52.160;6.736;2023-04-06T13:48:25;16.48;;;10.50;;
79533;SDS011;68982;52.160;6.736;2023-04-06T13:50:53;16.98;;;10.52;;
79533;SDS011;68982;52.160;6.736;2023-04-06T13:53:18;18.05;;;10.10;;
79533;SDS011;68982;52.160;6.736;2023-04-06T13:55:51;16.67;;;10.18;;
79533;SDS011;68982;52.160;6.736;2023-04-06T13:58:17;16.90;;;10.63;;
79533;SDS011;68982;52.160;6.736;2023-04-06T14:00:42;19.63;;;11.17;;
79533;SDS011;68982;52.160;6.736;2023-04-06T14:03:08;18.17;;;10.48;;
79533;SDS011;68982;52.160;6.736;2023-04-06T14:05:33;15.80;;;10.32;;
79533;SDS011;68982;52.160;6.736;2023-04-06T14:07:59;17.92;;;10.32;;
79533;SDS011;68982;52.160;6.736;2023-04-06T14:10:24;18.70;;;11.93;;
79533;SDS011;68982;52.160;6.736;2023-04-06T14:12:52;16.35;;;9.88;;
79533;SDS011;68982;52.160;6.736;2023-04-06T14:15:17;16.42;;;9.43;;
79533;SDS011;68982;52.160;6.736;2023-04-06T14:17:43;20.55;;;10.10;;
79533;SDS011;68982;52.160;6.736;2023-04-06T14:20:09;17.08;;;9.85;;
79533;SDS011;68982;52.160;6.736;2023-04-06T14:22:39;16.90;;;9.40;;
79533;SDS011;68982;52.160;6.736;2023-04-06T14:25:06;16.10;;;9.98;;
79533;SDS011;68982;52.160;6.736;2023-04-06T14:27:31;16.88;;;9.95;;